Latest Coastal Weather Observations for Cape Bruny AWS

IDT60701

Issued at 6:02 pm EDT Friday 27 March 2015 (issued every 10 minutes, with the page automatically refreshed every 10 minutes)

About coastal observations | Map of coastal stations | Coastal observations for TAS | Marine services | Other Formats
Station Details ID: 094198 Name: CAPE BRUNY (CAPE BRUNY) Lat: -43.49 Lon: 147.14 Height: 59.7 m
Data from the previous 72 hours. | See also: Recent months at Cape Bruny AWS
Date/Time
EDT
Temp

°C
Wind Pressure Rain
since 9am
mm
Weather Cloud Vis
km
Sea
Height
m
Swell
Dir
 
Speed
knots
Gust
knots
hPa Trend Height
m
Period
s
Dir
27/06:00pm 13.4 SW 12 20 1017.3 - 3.2 - - - - - - -
27/05:30pm 13.3 SSW 11 20 1017.1 - 3.2 - - - - - - -
27/05:00pm 13.4 S 15 26 1016.9 - 3.2 - - - - - - -
27/04:53pm 13.0 S 15 26 1016.8 - 3.2 - - - - - - -
27/04:30pm 12.8 S 13 19 1016.7 - 3.2 - - - - - - -
27/04:00pm 13.0 S 17 30 1016.5 - 3.2 - - - - - - -
27/03:37pm 12.5 SSW 13 27 1016.2 - 3.2 - - - - - - -
27/03:30pm 12.0 SW 13 21 1016.2 - 3.2 - - - - - - -
27/03:00pm 12.6 S 18 31 1015.7 - 3.2 Recent precip. - - - - - -
27/02:46pm 12.1 S 17 27 1015.7 - 3.2 - - - - - - -
27/02:30pm 12.2 S 18 24 1015.6 - 3.2 - - - - - - -
27/02:00pm 12.2 S 15 25 1015.5 - 3.0 - - - - - - -
27/01:30pm 12.1 S 16 31 1015.5 - 2.4 - - - - - - -
27/01:01pm 12.6 SSW 15 27 1015.2 - 2.4 - - - - - - -
27/01:00pm 12.4 SSW 14 27 1015.2 - 2.4 - - - - - - -
27/12:30pm 12.6 S 14 22 1015.0 - 2.2 - - - - - - -
27/12:00pm 12.2 SW 9 16 1014.6 - 2.2 Recent precip. - - - - - -
27/11:30am 12.0 SW 14 18 1014.0 - 2.2 - - - - - - -
27/11:00am 11.9 SW 14 18 1013.7 - 2.0 - - - - - - -
27/10:30am 11.8 SW 14 20 1013.3 - 1.6 - - - - - - -
27/10:00am 11.5 SSW 11 18 1012.9 - 1.4 - - - - - - -
27/09:30am 10.9 WSW 6 8 1012.3 - 0.6 - - - - - - -
27/09:00am 9.6 ENE 4 7 1011.6 - 22.4 Recent precip. - - - - - -
27/08:30am 9.4 ENE 7 9 1010.9 - 22.0 - - - - - - -
27/08:00am 9.6 NNE 8 11 1010.3 - 21.0 - - - - - - -
27/07:30am 9.6 N 7 10 1010.0 - 19.8 - - - - - - -
27/07:00am 9.7 NW 7 10 1009.6 - 18.8 - - - - - - -
27/06:30am 9.8 NW 7 9 1009.5 - 17.8 - - - - - - -
27/06:00am 9.8 NW 10 15 1009.3 - 17.0 Recent precip. - - - - - -
27/05:30am 9.6 WNW 10 15 1009.3 - 16.6 - - - - - - -
27/05:00am 9.5 NW 7 10 1009.3 - 15.6 - - - - - - -
27/04:30am 9.9 W 7 9 1009.6 - 12.4 - - - - - - -
27/04:00am 9.8 WNW 9 11 1009.5 - 10.4 - - - - - - -
27/03:30am 9.7 WNW 8 10 1009.9 - 9.6 - - - - - - -
27/03:00am 10.1 W 13 16 1009.7 - 9.0 Recent precip. - - - - - -
27/02:30am 10.0 W 16 20 1010.1 - 8.8 - - - - - - -
27/02:00am 10.8 W 15 18 1010.4 - 8.2 - - - - - - -
27/01:30am 10.9 W 14 17 1010.3 - 8.2 - - - - - - -
27/01:00am 11.1 WSW 16 19 1010.5 - 8.2 - - - - - - -
27/12:30am 11.2 WSW 12 16 1011.1 - 8.2 - - - - - - -
27/12:00am 11.3 WSW 11 15 1011.2 - 8.2 - - - - - - -
 
Date/Time
EDT
Temp

°C
Wind Pressure Rain
since 9am
mm
Weather Cloud Vis
km
Sea
Height
m
Swell
Dir
 
Speed
knots
Gust
knots
hPa Trend Height
m
Period
s
Dir
26/11:30pm 11.3 SW 12 15 1011.1 - 8.2 - - - - - - -
26/11:00pm 11.3 SW 10 14 1011.0 - 8.2 - - - - - - -
26/10:30pm 11.2 SW 12 15 1011.2 - 8.2 - - - - - - -
26/10:00pm 10.7 SW 8 10 1011.0 - 8.2 - - - - - - -
26/09:30pm 10.6 SW 5 7 1011.3 - 8.2 - - - - - - -
26/09:00pm 11.1 SW 4 6 1011.2 - 8.2 - - - - - - -
26/08:30pm 10.9 SW 2 4 1010.7 - 8.2 - - - - - - -
26/08:00pm 11.1 SW 4 6 1010.4 - 8.2 - - - - - - -
26/07:30pm 11.6 SW 5 7 1010.4 - 8.2 - - - - - - -
26/07:00pm 11.9 SW 7 10 1010.2 - 8.2 - - - - - - -
26/06:30pm 12.3 SW 8 11 1010.1 - 8.2 - - - - - - -
26/06:00pm 12.9 W 5 6 1009.9 - 8.2 - - - - - - -
26/05:30pm 14.1 W 6 8 1009.6 - 8.2 - - - - - - -
26/05:00pm 13.6 WNW 8 8 1009.6 - 8.2 - - - - - - -
26/04:30pm 14.3 WNW 5 7 1009.2 - 8.2 - - - - - - -
26/04:00pm 13.6 E 2 5 1009.6 - 8.2 - - - - - - -
26/03:30pm 14.0 ENE 3 6 1009.7 - 8.2 - - - - - - -
26/03:00pm 14.0 NE 5 8 1009.8 - 8.2 - - - - - - -
26/02:30pm 12.6 NNW 3 6 1010.0 - 8.2 - - - - - - -
26/02:00pm 12.4 WNW 5 7 1010.0 - 8.2 - - - - - - -
26/01:30pm 12.5 WNW 6 7 1010.4 - 8.2 - - - - - - -
26/01:00pm 12.2 WNW 8 11 1010.5 - 8.2 - - - - - - -
26/12:30pm 13.3 E 5 8 1010.4 - 8.2 - - - - - - -
26/12:00pm 12.3 ESE 7 9 1010.7 - 8.2 Recent precip. - - - - - -
26/11:30am 11.1 ESE 6 12 1010.7 - 8.2 - - - - - - -
26/11:00am 10.7 ESE 15 19 1010.6 - 7.8 - - - - - - -
26/10:30am 10.3 ESE 10 11 1011.5 - 6.8 - - - - - - -
26/10:00am 9.9 E 3 6 1012.1 - 4.0 - - - - - - -
26/09:30am 9.9 NNW 7 9 1012.2 - 1.6 - - - - - - -
26/09:00am 10.3 NNW 9 11 1012.5 - 0.6 Recent precip. - - - - - -
26/08:30am 11.0 N 7 9 1012.1 - 0.2 - - - - - - -
26/08:00am 11.4 NNW 7 9 1011.9 - 0.0 - - - - - - -
26/07:30am 11.6 NW 4 7 1011.1 - 0.0 - - - - - - -
26/07:00am 11.9 NE 4 10 1011.1 - 0.0 - - - - - - -
26/06:30am 11.9 NNE 12 16 1011.1 - 0.0 - - - - - - -
26/06:00am 11.5 NNE 11 16 1011.2 - 0.0 - - - - - - -
26/05:30am 10.7 NNE 8 11 1011.6 - 0.0 - - - - - - -
26/05:00am 11.7 NNE 8 10 1011.4 - 0.0 - - - - - - -
26/04:30am 10.7 ENE 8 10 1011.6 - 0.0 - - - - - - -
26/04:00am 11.4 NNE 8 10 1012.1 - 0.0 - - - - - - -
26/03:30am 11.5 NNE 9 11 1012.7 - 0.0 - - - - - - -
26/03:00am 11.6 NE 5 6 1013.1 - 0.0 - - - - - - -
26/02:30am 12.2 NNE 7 11 1013.1 - 0.0 - - - - - - -
26/02:00am 12.0 NE 8 10 1012.8 - 0.0 - - - - - - -
26/01:30am 12.7 NE 10 14 1013.2 - 0.0 - - - - - - -
26/01:00am 12.8 NE 10 13 1013.4 - 0.0 - - - - - - -
26/12:30am 12.4 NE 8 11 1013.6 - 0.0 - - - - - - -
26/12:00am 12.3 NE 7 9 1013.8 - 0.0 - - - - - - -
 
Date/Time
EDT
Temp

°C
Wind Pressure Rain
since 9am
mm
Weather Cloud Vis
km
Sea
Height
m
Swell
Dir
 
Speed
knots
Gust
knots
hPa Trend Height
m
Period
s
Dir
25/11:30pm 12.7 NE 8 12 1013.7 - 0.0 - - - - - - -
25/11:00pm 12.9 NE 10 16 1013.7 - 0.0 - - - - - - -
25/10:30pm 12.9 NE 10 14 1013.6 - 0.0 - - - - - - -
25/10:00pm 12.9 NE 10 16 1013.5 - 0.0 - - - - - - -
25/09:30pm 12.1 NNE 7 10 1013.6 - 0.0 - - - - - - -
25/09:00pm 11.9 NNE 5 7 1013.4 - 0.0 - - - - - - -
25/08:30pm 12.1 NNE 7 9 1013.3 - 0.0 - - - - - - -
25/08:00pm 12.7 NNE 6 8 1013.2 - 0.0 - - - - - - -
25/07:30pm 13.8 E 4 5 1013.0 - 0.0 - - - - - - -
25/07:00pm 14.3 SW 9 14 1013.1 - 0.0 - - - - - - -
25/06:30pm 14.5 SW 8 13 1012.8 - 0.0 - - - - - - -
25/06:00pm 15.5 S 6 7 1012.4 - 0.0 - - - - - - -
25/05:30pm 15.7 SSW 7 10 1012.3 - 0.0 - - - - - - -
25/05:00pm 17.2 W 4 5 1012.2 - 0.0 - - - - - - -
25/04:30pm 17.3 WNW 5 7 1012.1 - 0.0 - - - - - - -
25/04:00pm 17.5 W 5 7 1012.3 - 0.0 - - - - - - -
25/03:30pm 17.4 WNW 6 9 1012.4 - 0.0 - - - - - - -
25/03:00pm 18.5 N 7 13 1012.4 - 0.0 - - - - - - -
25/02:30pm 17.5 W 7 9 1012.7 - 0.0 - - - - - - -
25/02:00pm 17.1 W 7 9 1012.9 - 0.0 - - - - - - -
25/01:30pm 16.3 NE 7 9 1013.3 - 0.0 - - - - - - -
25/01:00pm 15.3 NNE 7 10 1013.5 - 0.0 - - - - - - -
25/12:30pm 14.8 N 8 14 1013.8 - 0.0 - - - - - - -
25/12:00pm 15.1 NNE 11 15 1013.7 - 0.0 - - - - - - -
25/11:30am 15.4 N 9 15 1014.0 - 0.0 - - - - - - -
25/11:00am 14.5 N 9 14 1014.1 - 0.0 - - - - - - -
25/10:30am 13.4 N 9 12 1014.2 - 0.0 - - - - - - -
25/10:00am 13.5 N 7 10 1014.2 - 0.0 - - - - - - -
25/09:30am 13.2 N 8 11 1013.9 - 0.0 - - - - - - -
25/09:00am 12.4 N 8 13 1013.8 - 0.0 - - - - - - -
25/08:30am 12.0 N 9 13 1013.8 - 0.0 - - - - - - -
25/08:00am 11.3 N 8 10 1013.7 - 0.0 - - - - - - -
25/07:30am 11.5 N 7 9 1013.7 - 0.0 - - - - - - -
25/07:00am 11.5 NNW 8 11 1013.5 - 0.0 - - - - - - -
25/06:30am 11.3 N 8 11 1013.5 - 0.0 - - - - - - -
25/06:00am 10.8 N 10 13 1013.5 - 0.0 - - - - - - -
25/05:30am 10.4 NNW 10 14 1013.5 - 0.0 - - - - - - -
25/05:00am 10.8 N 9 12 1013.7 - 0.0 - - - - - - -
25/04:30am 10.4 NNE 6 9 1013.7 - 0.0 - - - - - - -
25/04:00am 11.4 NNW 9 12 1014.2 - 0.0 - - - - - - -
25/03:30am 10.8 N 7 10 1014.3 - 0.0 - - - - - - -
25/03:00am 10.4 N 8 11 1014.5 - 0.0 - - - - - - -
25/02:30am 11.0 N 6 8 1014.8 - 0.0 - - - - - - -
25/02:00am 11.5 NNW 9 12 1014.8 - 0.0 - - - - - - -
25/01:30am 11.2 NNW 10 13 1014.8 - 0.0 - - - - - - -
25/01:00am 11.1 NNW 9 14 1014.7 - 0.0 - - - - - - -
25/12:30am 10.9 N 8 11 1014.9 - 0.0 - - - - - - -
25/12:00am 10.4 N 6 8 1015.5 - 0.0 - - - - - - -
 
Date/Time
EDT
Temp

°C
Wind Pressure Rain
since 9am
mm
Weather Cloud Vis
km
Sea
Height
m
Swell
Dir
 
Speed
knots
Gust
knots
hPa Trend Height
m
Period
s
Dir
24/11:30pm 11.0 NNW 9 11 1015.8 - 0.0 - - - - - - -
24/11:00pm 10.8 NNW 9 11 1016.1 - 0.0 - - - - - - -
24/10:30pm 11.5 NW 8 11 1016.3 - 0.0 - - - - - - -
24/10:00pm 12.1 NW 11 14 1016.5 - 0.0 - - - - - - -
24/09:30pm 12.1 NW 10 14 1016.6 - 0.0 - - - - - - -
24/09:00pm 12.1 NNW 8 11 1016.7 - 0.0 - - - - - - -
24/08:30pm 12.3 NW 11 15 1016.6 - 0.0 - - - - - - -
24/08:00pm 12.4 WNW 13 18 1016.4 - 0.0 - - - - - - -
24/07:30pm 12.3 WNW 14 19 1016.2 - 0.0 - - - - - - -
24/07:00pm 12.3 WNW 13 18 1016.1 - 0.0 - - - - - - -
24/06:30pm 12.7 WNW 16 23 1015.9 - 0.0 - - - - - - -

Other Formats:

Comma delimited format used in spreadsheet applications
http://www.bom.gov.au/fwo/IDT60701/IDT60701.95967.axf

JavaScript Object Notation format (JSON) in row-major order
http://www.bom.gov.au/fwo/IDT60701/IDT60701.95967.json